sensor_id;sensor_type;location;lat;lon;timestamp;pressure;altitude;pressure_sealevel;temperature
25985;BMP280;66753;53.848;10.658;2023-01-23T00:00:47;103433.88;;;5.54
25985;BMP280;66753;53.848;10.658;2023-01-23T00:06:01;103424.16;;;5.54
25985;BMP280;66753;53.848;10.658;2023-01-23T00:11:08;103435.81;;;5.58
25985;BMP280;66753;53.848;10.658;2023-01-23T00:16:15;103433.41;;;5.57
25985;BMP280;66753;53.848;10.658;2023-01-23T00:21:18;103440.72;;;5.55
25985;BMP280;66753;53.848;10.658;2023-01-23T00:26:21;103443.03;;;5.51
25985;BMP280;66753;53.848;10.658;2023-01-23T00:31:28;103466.94;;;5.50
25985;BMP280;66753;53.848;10.658;2023-01-23T00:36:36;103452.41;;;5.47
25985;BMP280;66753;53.848;10.658;2023-01-23T00:41:36;103446.03;;;5.43
25985;BMP280;66753;53.848;10.658;2023-01-23T00:46:37;103451.50;;;5.42
25985;BMP280;66753;53.848;10.658;2023-01-23T00:51:38;103452.41;;;5.36
25985;BMP280;66753;53.848;10.658;2023-01-23T00:56:38;103453.69;;;5.33
25985;BMP280;66753;53.848;10.658;2023-01-23T01:01:39;103457.19;;;5.39
25985;BMP280;66753;53.848;10.658;2023-01-23T01:06:40;103456.41;;;5.38
25985;BMP280;66753;53.848;10.658;2023-01-23T01:11:40;103459.03;;;5.38
25985;BMP280;66753;53.848;10.658;2023-01-23T01:16:41;103456.41;;;5.38
25985;BMP280;66753;53.848;10.658;2023-01-23T01:21:45;103463.03;;;5.41
25985;BMP280;66753;53.848;10.658;2023-01-23T01:26:45;103467.28;;;5.42
25985;BMP280;66753;53.848;10.658;2023-01-23T01:31:45;103471.75;;;5.41
25985;BMP280;66753;53.848;10.658;2023-01-23T01:36:46;103481.00;;;5.44
25985;BMP280;66753;53.848;10.658;2023-01-23T01:41:46;103497.69;;;5.38
25985;BMP280;66753;53.848;10.658;2023-01-23T01:46:47;103500.66;;;5.30
25985;BMP280;66753;53.848;10.658;2023-01-23T01:52:06;103506.81;;;5.24
25985;BMP280;66753;53.848;10.658;2023-01-23T02:02:22;103503.81;;;5.20
25985;BMP280;66753;53.848;10.658;2023-01-23T02:07:25;103513.22;;;5.28
25985;BMP280;66753;53.848;10.658;2023-01-23T02:12:27;103521.56;;;5.25
25985;BMP280;66753;53.848;10.658;2023-01-23T02:17:29;103521.00;;;5.23
25985;BMP280;66753;53.848;10.658;2023-01-23T02:27:34;103524.38;;;5.12
25985;BMP280;66753;53.848;10.658;2023-01-23T02:32:34;103536.53;;;5.13
25985;BMP280;66753;53.848;10.658;2023-01-23T02:37:40;103532.88;;;5.14
25985;BMP280;66753;53.848;10.658;2023-01-23T02:42:42;103532.28;;;5.12
25985;BMP280;66753;53.848;10.658;2023-01-23T02:47:47;103530.00;;;5.15
25985;BMP280;66753;53.848;10.658;2023-01-23T02:52:48;103531.28;;;5.13
25985;BMP280;66753;53.848;10.658;2023-01-23T02:57:50;103534.59;;;5.20
25985;BMP280;66753;53.848;10.658;2023-01-23T03:02:50;103527.50;;;5.20
25985;BMP280;66753;53.848;10.658;2023-01-23T03:07:51;103519.84;;;5.19
25985;BMP280;66753;53.848;10.658;2023-01-23T03:12:51;103532.19;;;5.18
25985;BMP280;66753;53.848;10.658;2023-01-23T03:17:52;103526.38;;;5.16
25985;BMP280;66753;53.848;10.658;2023-01-23T03:22:53;103524.19;;;5.13
25985;BMP280;66753;53.848;10.658;2023-01-23T03:27:53;103515.50;;;5.13
25985;BMP280;66753;53.848;10.658;2023-01-23T03:32:54;103524.97;;;5.14
25985;BMP280;66753;53.848;10.658;2023-01-23T03:37:54;103524.97;;;5.14
25985;BMP280;66753;53.848;10.658;2023-01-23T03:42:55;103523.59;;;5.11
25985;BMP280;66753;53.848;10.658;2023-01-23T03:47:55;103530.31;;;5.07
25985;BMP280;66753;53.848;10.658;2023-01-23T03:52:55;103529.31;;;5.08
25985;BMP280;66753;53.848;10.658;2023-01-23T03:57:59;103529.75;;;5.05
25985;BMP280;66753;53.848;10.658;2023-01-23T04:02:59;103528.13;;;5.04
25985;BMP280;66753;53.848;10.658;2023-01-23T04:08:00;103534.19;;;5.05
25985;BMP280;66753;53.848;10.658;2023-01-23T04:13:01;103536.25;;;5.03
25985;BMP280;66753;53.848;10.658;2023-01-23T04:18:02;103535.47;;;5.02
25985;BMP280;66753;53.848;10.658;2023-01-23T04:23:02;103538.66;;;5.04
25985;BMP280;66753;53.848;10.658;2023-01-23T04:28:03;103538.09;;;5.02
25985;BMP280;66753;53.848;10.658;2023-01-23T04:33:04;103555.94;;;5.00
25985;BMP280;66753;53.848;10.658;2023-01-23T04:38:04;103551.34;;;4.96
25985;BMP280;66753;53.848;10.658;2023-01-23T04:43:04;103563.06;;;4.93
25985;BMP280;66753;53.848;10.658;2023-01-23T04:48:05;103564.88;;;4.93
25985;BMP280;66753;53.848;10.658;2023-01-23T04:53:06;103562.69;;;4.90
25985;BMP280;66753;53.848;10.658;2023-01-23T04:58:06;103571.63;;;4.89
25985;BMP280;66753;53.848;10.658;2023-01-23T05:03:07;103566.38;;;4.89
25985;BMP280;66753;53.848;10.658;2023-01-23T05:08:07;103575.00;;;4.96
25985;BMP280;66753;53.848;10.658;2023-01-23T05:13:08;103579.06;;;4.92
25985;BMP280;66753;53.848;10.658;2023-01-23T05:18:09;103582.13;;;4.89
25985;BMP280;66753;53.848;10.658;2023-01-23T05:23:12;103586.50;;;4.95
25985;BMP280;66753;53.848;10.658;2023-01-23T05:28:33;103600.84;;;4.99
25985;BMP280;66753;53.848;10.658;2023-01-23T05:33:34;103601.06;;;4.97
25985;BMP280;66753;53.848;10.658;2023-01-23T05:38:35;103605.72;;;4.95
25985;BMP280;66753;53.848;10.658;2023-01-23T05:43:35;103617.69;;;4.91
25985;BMP280;66753;53.848;10.658;2023-01-23T05:48:36;103621.56;;;4.89
25985;BMP280;66753;53.848;10.658;2023-01-23T05:53:36;103612.84;;;4.88
25985;BMP280;66753;53.848;10.658;2023-01-23T05:58:40;103626.22;;;4.87
25985;BMP280;66753;53.848;10.658;2023-01-23T06:03:40;103631.13;;;4.83
25985;BMP280;66753;53.848;10.658;2023-01-23T06:08:40;103630.34;;;4.83
25985;BMP280;66753;53.848;10.658;2023-01-23T06:13:41;103629.66;;;4.87
25985;BMP280;66753;53.848;10.658;2023-01-23T06:18:41;103633.53;;;4.85
25985;BMP280;66753;53.848;10.658;2023-01-23T06:23:41;103632.38;;;4.81
25985;BMP280;66753;53.848;10.658;2023-01-23T06:28:42;103632.38;;;4.81
25985;BMP280;66753;53.848;10.658;2023-01-23T06:33:42;103640.47;;;4.79
25985;BMP280;66753;53.848;10.658;2023-01-23T06:38:43;103636.38;;;4.83
25985;BMP280;66753;53.848;10.658;2023-01-23T06:43:43;103631.78;;;4.79
25985;BMP280;66753;53.848;10.658;2023-01-23T06:48:44;103652.81;;;4.79
25985;BMP280;66753;53.848;10.658;2023-01-23T06:53:47;103647.13;;;4.82
25985;BMP280;66753;53.848;10.658;2023-01-23T06:58:48;103654.44;;;4.80
25985;BMP280;66753;53.848;10.658;2023-01-23T07:03:51;103673.28;;;4.77
25985;BMP280;66753;53.848;10.658;2023-01-23T07:08:52;103675.03;;;4.83
25985;BMP280;66753;53.848;10.658;2023-01-23T07:13:52;103677.22;;;4.86
25985;BMP280;66753;53.848;10.658;2023-01-23T07:18:53;103686.25;;;4.90
25985;BMP280;66753;53.848;10.658;2023-01-23T07:23:53;103694.00;;;4.85
25985;BMP280;66753;53.848;10.658;2023-01-23T07:28:54;103691.72;;;4.88
25985;BMP280;66753;53.848;10.658;2023-01-23T07:33:54;103704.06;;;4.88
25985;BMP280;66753;53.848;10.658;2023-01-23T07:38:55;103698.25;;;4.86
25985;BMP280;66753;53.848;10.658;2023-01-23T07:43:58;103696.84;;;4.83
25985;BMP280;66753;53.848;10.658;2023-01-23T07:48:59;103709.19;;;4.83
25985;BMP280;66753;53.848;10.658;2023-01-23T07:54:02;103709.19;;;4.83
25985;BMP280;66753;53.848;10.658;2023-01-23T07:59:03;103716.78;;;4.91
25985;BMP280;66753;53.848;10.658;2023-01-23T08:04:03;103718.38;;;4.92
25985;BMP280;66753;53.848;10.658;2023-01-23T08:09:04;103734.16;;;4.92
25985;BMP280;66753;53.848;10.658;2023-01-23T08:14:04;103731.09;;;4.95
25985;BMP280;66753;53.848;10.658;2023-01-23T08:19:08;103738.31;;;4.99
25985;BMP280;66753;53.848;10.658;2023-01-23T08:24:10;103737.91;;;5.02
25985;BMP280;66753;53.848;10.658;2023-01-23T08:29:10;103739.66;;;5.08
25985;BMP280;66753;53.848;10.658;2023-01-23T08:34:14;103753.16;;;5.12
25985;BMP280;66753;53.848;10.658;2023-01-23T08:39:18;103763.84;;;5.17
25985;BMP280;66753;53.848;10.658;2023-01-23T08:44:24;103768.66;;;5.20
25985;BMP280;66753;53.848;10.658;2023-01-23T08:49:25;103771.84;;;5.22
25985;BMP280;66753;53.848;10.658;2023-01-23T08:54:25;103783.13;;;5.29
25985;BMP280;66753;53.848;10.658;2023-01-23T08:59:27;103785.94;;;5.34
25985;BMP280;66753;53.848;10.658;2023-01-23T09:04:27;103769.25;;;5.40
25985;BMP280;66753;53.848;10.658;2023-01-23T09:09:28;103782.25;;;5.35
25985;BMP280;66753;53.848;10.658;2023-01-23T09:14:29;103781.34;;;5.41
25985;BMP280;66753;53.848;10.658;2023-01-23T09:19:30;103796.41;;;5.52
25985;BMP280;66753;53.848;10.658;2023-01-23T09:24:31;103794.97;;;5.56
25985;BMP280;66753;53.848;10.658;2023-01-23T09:29:31;103799.94;;;5.64
25985;BMP280;66753;53.848;10.658;2023-01-23T09:34:32;103793.41;;;5.66
25985;BMP280;66753;53.848;10.658;2023-01-23T09:39:32;103798.91;;;5.65
25985;BMP280;66753;53.848;10.658;2023-01-23T09:44:39;103796.19;;;5.71
25985;BMP280;66753;53.848;10.658;2023-01-23T09:49:48;103793.31;;;5.73
25985;BMP280;66753;53.848;10.658;2023-01-23T09:54:57;103789.88;;;5.72
25985;BMP280;66753;53.848;10.658;2023-01-23T10:00:12;103791.56;;;5.67
25985;BMP280;66753;53.848;10.658;2023-01-23T10:05:16;103790.69;;;5.73
25985;BMP280;66753;53.848;10.658;2023-01-23T10:26:40;103770.91;;;6.12
25985;BMP280;66753;53.848;10.658;2023-01-23T10:31:52;103773.03;;;6.21
25985;BMP280;66753;53.848;10.658;2023-01-23T10:37:12;103773.81;;;6.33
25985;BMP280;66753;53.848;10.658;2023-01-23T10:42:18;103784.03;;;6.41
25985;BMP280;66753;53.848;10.658;2023-01-23T10:47:34;103779.72;;;6.47
25985;BMP280;66753;53.848;10.658;2023-01-23T10:52:41;103792.06;;;6.69
25985;BMP280;66753;53.848;10.658;2023-01-23T10:57:46;103785.56;;;6.83
25985;BMP280;66753;53.848;10.658;2023-01-23T11:02:48;103793.78;;;6.87
25985;BMP280;66753;53.848;10.658;2023-01-23T11:07:53;103784.53;;;6.84
25985;BMP280;66753;53.848;10.658;2023-01-23T11:12:54;103779.69;;;6.81
25985;BMP280;66753;53.848;10.658;2023-01-23T11:17:57;103779.25;;;6.84
25985;BMP280;66753;53.848;10.658;2023-01-23T11:38:26;103784.22;;;7.20
25985;BMP280;66753;53.848;10.658;2023-01-23T11:43:26;103785.38;;;7.24
25985;BMP280;66753;53.848;10.658;2023-01-23T11:54:13;103798.00;;;7.22
25985;BMP280;66753;53.848;10.658;2023-01-23T12:10:03;103808.81;;;7.09
25985;BMP280;66753;53.848;10.658;2023-01-23T12:26:10;103805.50;;;6.91
25985;BMP280;66753;53.848;10.658;2023-01-23T12:42:17;103797.81;;;6.89
25985;BMP280;66753;53.848;10.658;2023-01-23T12:47:24;103805.38;;;6.86
25985;BMP280;66753;53.848;10.658;2023-01-23T12:52:30;103802.97;;;6.84
25985;BMP280;66753;53.848;10.658;2023-01-23T12:57:33;103797.47;;;6.86
25985;BMP280;66753;53.848;10.658;2023-01-23T13:08:05;103801.44;;;6.88
25985;BMP280;66753;53.848;10.658;2023-01-23T13:13:06;103796.88;;;6.95
25985;BMP280;66753;53.848;10.658;2023-01-23T13:18:21;103796.53;;;6.92
25985;BMP280;66753;53.848;10.658;2023-01-23T13:23:29;103801.72;;;6.87
25985;BMP280;66753;53.848;10.658;2023-01-23T13:28:38;103799.31;;;6.85
25985;BMP280;66753;53.848;10.658;2023-01-23T13:44:18;103800.66;;;6.76
25985;BMP280;66753;53.848;10.658;2023-01-23T13:54:50;103811.34;;;6.81
25985;BMP280;66753;53.848;10.658;2023-01-23T14:00:19;103807.09;;;6.80
25985;BMP280;66753;53.848;10.658;2023-01-23T14:05:31;103808.34;;;6.78
25985;BMP280;66753;53.848;10.658;2023-01-23T14:10:33;103812.03;;;6.77
25985;BMP280;66753;53.848;10.658;2023-01-23T14:15:34;103814.91;;;6.75
25985;BMP280;66753;53.848;10.658;2023-01-23T14:21:20;103803.78;;;6.73
25985;BMP280;66753;53.848;10.658;2023-01-23T14:26:26;103797.34;;;6.69
25985;BMP280;66753;53.848;10.658;2023-01-23T14:31:30;103791.75;;;6.66
25985;BMP280;66753;53.848;10.658;2023-01-23T14:36:32;103798.72;;;6.60
25985;BMP280;66753;53.848;10.658;2023-01-23T14:41:38;103793.31;;;6.55
25985;BMP280;66753;53.848;10.658;2023-01-23T14:46:39;103797.00;;;6.54
25985;BMP280;66753;53.848;10.658;2023-01-23T14:51:53;103803.88;;;6.55
25985;BMP280;66753;53.848;10.658;2023-01-23T14:56:54;103792.41;;;6.50
25985;BMP280;66753;53.848;10.658;2023-01-23T15:02:01;103796.97;;;6.43
25985;BMP280;66753;53.848;10.658;2023-01-23T15:07:02;103784.03;;;6.41
25985;BMP280;66753;53.848;10.658;2023-01-23T15:12:04;103794.47;;;6.36
25985;BMP280;66753;53.848;10.658;2023-01-23T15:17:12;103787.81;;;6.34
25985;BMP280;66753;53.848;10.658;2023-01-23T15:22:20;103785.03;;;6.29
25985;BMP280;66753;53.848;10.658;2023-01-23T15:27:33;103779.19;;;6.27
25985;BMP280;66753;53.848;10.658;2023-01-23T15:32:37;103777.69;;;6.19
25985;BMP280;66753;53.848;10.658;2023-01-23T15:37:38;103786.50;;;6.13
25985;BMP280;66753;53.848;10.658;2023-01-23T15:42:38;103776.75;;;6.14
25985;BMP280;66753;53.848;10.658;2023-01-23T15:47:39;103777.19;;;6.11
25985;BMP280;66753;53.848;10.658;2023-01-23T15:52:47;103775.69;;;6.03
25985;BMP280;66753;53.848;10.658;2023-01-23T15:57:51;103778.19;;;5.98
25985;BMP280;66753;53.848;10.658;2023-01-23T16:02:53;103779.81;;;5.99
25985;BMP280;66753;53.848;10.658;2023-01-23T16:07:55;103789.53;;;5.99
25985;BMP280;66753;53.848;10.658;2023-01-23T16:12:57;103778.28;;;5.92
25985;BMP280;66753;53.848;10.658;2023-01-23T16:17:58;103784.22;;;5.87
25985;BMP280;66753;53.848;10.658;2023-01-23T16:23:02;103787.91;;;5.86
25985;BMP280;66753;53.848;10.658;2023-01-23T16:28:03;103797.75;;;5.91
25985;BMP280;66753;53.848;10.658;2023-01-23T16:33:03;103806.91;;;5.88
25985;BMP280;66753;53.848;10.658;2023-01-23T16:38:04;103802.75;;;5.81
25985;BMP280;66753;53.848;10.658;2023-01-23T16:43:05;103812.50;;;5.80
25985;BMP280;66753;53.848;10.658;2023-01-23T16:48:06;103802.38;;;5.77
25985;BMP280;66753;53.848;10.658;2023-01-23T16:58:22;103804.00;;;5.78
25985;BMP280;66753;53.848;10.658;2023-01-23T17:03:25;103809.28;;;5.78
25985;BMP280;66753;53.848;10.658;2023-01-23T17:08:29;103821.63;;;5.78
25985;BMP280;66753;53.848;10.658;2023-01-23T17:13:30;103820.25;;;5.75
25985;BMP280;66753;53.848;10.658;2023-01-23T17:18:33;103823.44;;;5.77
25985;BMP280;66753;53.848;10.658;2023-01-23T17:23:34;103816.19;;;5.72
25985;BMP280;66753;53.848;10.658;2023-01-23T17:28:35;103832.00;;;5.72
25985;BMP280;66753;53.848;10.658;2023-01-23T17:33:35;103825.13;;;5.71
25985;BMP280;66753;53.848;10.658;2023-01-23T17:38:37;103829.19;;;5.67
25985;BMP280;66753;53.848;10.658;2023-01-23T17:43:37;103826.25;;;5.64
25985;BMP280;66753;53.848;10.658;2023-01-23T17:48:38;103832.91;;;5.66
25985;BMP280;66753;53.848;10.658;2023-01-23T17:53:40;103837.91;;;5.68
25985;BMP280;66753;53.848;10.658;2023-01-23T17:58:40;103841.81;;;5.65
25985;BMP280;66753;53.848;10.658;2023-01-23T18:03:41;103856.34;;;5.68
25985;BMP280;66753;53.848;10.658;2023-01-23T18:08:42;103850.19;;;5.74
25985;BMP280;66753;53.848;10.658;2023-01-23T18:18:51;103850.25;;;5.67
25985;BMP280;66753;53.848;10.658;2023-01-23T18:23:55;103858.06;;;5.62
25985;BMP280;66753;53.848;10.658;2023-01-23T18:29:17;103843.94;;;5.57
25985;BMP280;66753;53.848;10.658;2023-01-23T18:34:36;103855.91;;;5.53
25985;BMP280;66753;53.848;10.658;2023-01-23T18:39:53;103862.56;;;5.55
25985;BMP280;66753;53.848;10.658;2023-01-23T18:44:59;103855.91;;;5.53
25985;BMP280;66753;53.848;10.658;2023-01-23T18:50:00;103860.63;;;5.51
25985;BMP280;66753;53.848;10.658;2023-01-23T18:55:06;103861.84;;;5.48
25985;BMP280;66753;53.848;10.658;2023-01-23T19:10:28;103874.41;;;5.46
25985;BMP280;66753;53.848;10.658;2023-01-23T19:15:35;103866.31;;;5.48
25985;BMP280;66753;53.848;10.658;2023-01-23T19:21:03;103873.53;;;5.52
25985;BMP280;66753;53.848;10.658;2023-01-23T19:26:13;103874.34;;;5.53
25985;BMP280;66753;53.848;10.658;2023-01-23T19:36:19;103860.06;;;5.42
25985;BMP280;66753;53.848;10.658;2023-01-23T19:41:22;103861.75;;;5.37
25985;BMP280;66753;53.848;10.658;2023-01-23T19:46:24;103866.78;;;5.38
25985;BMP280;66753;53.848;10.658;2023-01-23T19:51:25;103857.53;;;5.36
25985;BMP280;66753;53.848;10.658;2023-01-23T19:56:27;103854.72;;;5.31
25985;BMP280;66753;53.848;10.658;2023-01-23T20:01:40;103848.28;;;5.27
25985;BMP280;66753;53.848;10.658;2023-01-23T20:06:43;103860.41;;;5.28
25985;BMP280;66753;53.848;10.658;2023-01-23T20:11:48;103867.75;;;5.26
25985;BMP280;66753;53.848;10.658;2023-01-23T20:16:52;103871.31;;;5.31
25985;BMP280;66753;53.848;10.658;2023-01-23T20:21:52;103867.31;;;5.29
25985;BMP280;66753;53.848;10.658;2023-01-23T20:26:53;103880.63;;;5.34
25985;BMP280;66753;53.848;10.658;2023-01-23T20:31:56;103869.06;;;5.35
25985;BMP280;66753;53.848;10.658;2023-01-23T20:36:57;103872.06;;;5.38
25985;BMP280;66753;53.848;10.658;2023-01-23T20:41:57;103867.38;;;5.40
25985;BMP280;66753;53.848;10.658;2023-01-23T20:47:07;103864.94;;;5.39
25985;BMP280;66753;53.848;10.658;2023-01-23T20:52:07;103871.25;;;5.38
25985;BMP280;66753;53.848;10.658;2023-01-23T20:57:26;103862.31;;;5.39
25985;BMP280;66753;53.848;10.658;2023-01-23T21:02:46;103866.88;;;5.32
25985;BMP280;66753;53.848;10.658;2023-01-23T21:07:47;103870.50;;;5.31
25985;BMP280;66753;53.848;10.658;2023-01-23T21:12:47;103872.56;;;5.29
25985;BMP280;66753;53.848;10.658;2023-01-23T21:17:48;103874.00;;;5.25
25985;BMP280;66753;53.848;10.658;2023-01-23T21:22:48;103875.03;;;5.24
25985;BMP280;66753;53.848;10.658;2023-01-23T21:27:48;103880.88;;;5.26
25985;BMP280;66753;53.848;10.658;2023-01-23T21:32:49;103887.75;;;5.27
25985;BMP280;66753;53.848;10.658;2023-01-23T21:37:49;103897.63;;;5.31
25985;BMP280;66753;53.848;10.658;2023-01-23T21:42:49;103889.09;;;5.36
25985;BMP280;66753;53.848;10.658;2023-01-23T21:47:50;103892.28;;;5.38
25985;BMP280;66753;53.848;10.658;2023-01-23T21:52:50;103899.75;;;5.41
25985;BMP280;66753;53.848;10.658;2023-01-23T21:57:51;103901.22;;;5.37
25985;BMP280;66753;53.848;10.658;2023-01-23T22:02:51;103905.91;;;5.35
25985;BMP280;66753;53.848;10.658;2023-01-23T22:07:52;103910.56;;;5.33
25985;BMP280;66753;53.848;10.658;2023-01-23T22:12:52;103921.91;;;5.33
25985;BMP280;66753;53.848;10.658;2023-01-23T22:17:53;103920.31;;;5.32
25985;BMP280;66753;53.848;10.658;2023-01-23T22:22:56;103928.38;;;5.31
25985;BMP280;66753;53.848;10.658;2023-01-23T22:27:59;103924.78;;;5.25
25985;BMP280;66753;53.848;10.658;2023-01-23T22:32:59;103912.88;;;5.23
25985;BMP280;66753;53.848;10.658;2023-01-23T22:38:00;103905.41;;;5.20
25985;BMP280;66753;53.848;10.658;2023-01-23T22:43:01;103893.31;;;5.19
25985;BMP280;66753;53.848;10.658;2023-01-23T22:48:01;103892.47;;;5.18
25985;BMP280;66753;53.848;10.658;2023-01-23T22:53:02;103895.69;;;5.20
25985;BMP280;66753;53.848;10.658;2023-01-23T22:58:02;103897.28;;;5.21
25985;BMP280;66753;53.848;10.658;2023-01-23T23:03:02;103902.94;;;5.25
25985;BMP280;66753;53.848;10.658;2023-01-23T23:08:03;103892.78;;;5.28
25985;BMP280;66753;53.848;10.658;2023-01-23T23:13:04;103894.81;;;5.26
25985;BMP280;66753;53.848;10.658;2023-01-23T23:18:05;103897.09;;;5.23
25985;BMP280;66753;53.848;10.658;2023-01-23T23:23:06;103901.31;;;5.24
25985;BMP280;66753;53.848;10.658;2023-01-23T23:28:06;103905.78;;;5.23
25985;BMP280;66753;53.848;10.658;2023-01-23T23:33:06;103905.78;;;5.23
25985;BMP280;66753;53.848;10.658;2023-01-23T23:38:07;103901.75;;;5.21
25985;BMP280;66753;53.848;10.658;2023-01-23T23:43:08;103897.28;;;5.21
25985;BMP280;66753;53.848;10.658;2023-01-23T23:48:11;103899.13;;;5.21
25985;BMP280;66753;53.848;10.658;2023-01-23T23:53:12;103895.13;;;5.18
25985;BMP280;66753;53.848;10.658;2023-01-23T23:58:13;103905.06;;;5.16
